createdAt,value
2022-12-25T00:02:37.846Z,9.10
2022-12-25T00:05:26.775Z,9.10
2022-12-25T00:08:14.617Z,8.80
2022-12-25T00:11:02.888Z,8.40
2022-12-25T00:13:51.143Z,8.80
2022-12-25T00:16:39.088Z,8.70
2022-12-25T00:19:26.697Z,10.70
2022-12-25T00:22:16.033Z,8.60
2022-12-25T00:25:04.196Z,8.80
2022-12-25T00:27:51.475Z,9.90
2022-12-25T00:30:41.106Z,10.40
2022-12-25T00:33:28.601Z,8.80
2022-12-25T00:36:17.158Z,9.20
2022-12-25T00:39:07.402Z,8.80
2022-12-25T00:42:12.060Z,8.80
2022-12-25T00:45:01.607Z,8.80
2022-12-25T00:47:49.158Z,8.50
2022-12-25T00:50:39.507Z,8.70
2022-12-25T00:53:27.195Z,8.60
2022-12-25T00:56:16.232Z,8.60
2022-12-25T00:59:03.535Z,8.80
2022-12-25T01:01:51.779Z,8.70
2022-12-25T01:04:39.814Z,9.20
2022-12-25T01:07:30.647Z,8.60
2022-12-25T01:10:23.011Z,8.50
2022-12-25T01:13:12.383Z,8.20
2022-12-25T01:16:00.935Z,8.50
2022-12-25T01:18:49.040Z,8.10
2022-12-25T01:21:37.232Z,8.30
2022-12-25T01:24:24.704Z,8.70
2022-12-25T01:27:12.490Z,8.40
2022-12-25T01:30:01.389Z,8.60
2022-12-25T01:32:48.916Z,8.40
2022-12-25T01:35:40.073Z,8.20
2022-12-25T01:38:28.276Z,8.40
2022-12-25T01:41:17.077Z,8.50
2022-12-25T01:44:06.357Z,8.50
2022-12-25T01:46:56.003Z,8.20
2022-12-25T01:49:45.486Z,8.40
2022-12-25T01:52:33.725Z,8.50
2022-12-25T01:55:21.976Z,8.50
2022-12-25T01:58:10.131Z,8.60
2022-12-25T02:00:58.073Z,8.90
2022-12-25T02:03:47.484Z,8.40
2022-12-25T02:06:36.092Z,8.60
2022-12-25T02:09:23.529Z,8.60
2022-12-25T02:12:13.443Z,8.40
2022-12-25T02:15:06.047Z,8.60
2022-12-25T02:17:58.986Z,8.40
2022-12-25T02:21:05.017Z,8.60
2022-12-25T02:24:23.758Z,8.50
2022-12-25T02:27:19.015Z,8.70
2022-12-25T02:30:09.926Z,8.70
2022-12-25T02:33:19.777Z,8.40
2022-12-25T02:36:09.836Z,8.30
2022-12-25T02:39:17.532Z,8.60
2022-12-25T02:42:07.783Z,8.60
2022-12-25T02:45:13.353Z,8.70
2022-12-25T02:48:20.355Z,8.70
2022-12-25T02:51:27.682Z,8.50
2022-12-25T02:54:34.631Z,8.70
2022-12-25T02:57:41.047Z,8.70
2022-12-25T03:00:46.023Z,9.50
2022-12-25T03:03:53.797Z,8.50
2022-12-25T03:06:45.893Z,11.00
2022-12-25T03:09:54.470Z,8.60
2022-12-25T03:12:45.656Z,8.40
2022-12-25T03:15:51.974Z,8.60
2022-12-25T03:18:41.570Z,8.70
2022-12-25T03:21:47.088Z,9.20
2022-12-25T03:24:52.439Z,8.70
2022-12-25T03:27:41.571Z,8.60
2022-12-25T03:30:49.654Z,8.60
2022-12-25T03:34:01.296Z,8.50
2022-12-25T03:36:58.710Z,8.70
2022-12-25T03:40:06.248Z,8.50
2022-12-25T03:43:13.636Z,8.60
2022-12-25T03:46:22.390Z,8.30
2022-12-25T03:49:31.706Z,8.50
2022-12-25T03:52:39.388Z,8.30
2022-12-25T03:55:44.735Z,8.90
2022-12-25T03:58:49.516Z,8.40
2022-12-25T04:01:56.857Z,8.40
2022-12-25T04:05:01.792Z,8.50
2022-12-25T04:08:08.801Z,8.10
2022-12-25T04:11:14.330Z,7.90
2022-12-25T04:14:19.783Z,8.20
2022-12-25T04:17:24.535Z,8.30
2022-12-25T04:20:30.664Z,8.20
2022-12-25T04:23:37.692Z,8.20
2022-12-25T04:26:47.953Z,8.40
2022-12-25T04:29:53.128Z,8.30
2022-12-25T04:32:58.565Z,8.90
2022-12-25T04:36:19.069Z,8.20
2022-12-25T04:39:08.182Z,8.30
2022-12-25T04:41:56.426Z,8.30
2022-12-25T04:44:44.278Z,8.50
2022-12-25T04:47:32.367Z,8.50
2022-12-25T04:50:20.640Z,8.60
2022-12-25T04:53:07.933Z,8.70
2022-12-25T04:56:03.889Z,8.50
2022-12-25T04:58:54.182Z,8.50
2022-12-25T05:01:42.457Z,8.80
2022-12-25T05:04:30.119Z,8.50
2022-12-25T05:07:17.762Z,8.20
2022-12-25T05:10:05.812Z,8.60
2022-12-25T05:12:54.678Z,8.40
2022-12-25T05:15:42.886Z,8.60
2022-12-25T05:18:30.682Z,8.60
2022-12-25T05:21:18.976Z,8.40
2022-12-25T05:24:06.788Z,8.70
2022-12-25T05:26:54.280Z,8.70
2022-12-25T05:29:43.526Z,8.70
2022-12-25T05:32:30.926Z,8.40
2022-12-25T05:35:18.489Z,8.90
2022-12-25T05:38:07.147Z,8.60
2022-12-25T05:40:56.774Z,8.60
2022-12-25T05:43:44.142Z,8.60
2022-12-25T05:46:33.274Z,8.60
2022-12-25T05:49:21.120Z,8.70
2022-12-25T05:52:09.028Z,8.20
2022-12-25T05:54:56.950Z,8.60
2022-12-25T05:57:44.773Z,8.50
2022-12-25T06:00:35.774Z,8.40
2022-12-25T06:03:25.284Z,8.80
2022-12-25T06:06:13.334Z,8.60
2022-12-25T06:09:01.243Z,8.40
2022-12-25T06:11:49.024Z,8.60
2022-12-25T06:14:36.528Z,8.30
2022-12-25T06:17:26.087Z,8.50
2022-12-25T06:20:15.281Z,8.20
2022-12-25T06:23:02.822Z,8.10
2022-12-25T06:25:50.154Z,8.30
2022-12-25T06:28:38.007Z,8.20
2022-12-25T06:31:25.980Z,8.50
2022-12-25T06:34:16.555Z,8.10
2022-12-25T06:37:05.233Z,8.40
2022-12-25T06:39:52.591Z,8.90
2022-12-25T06:42:40.204Z,9.10
2022-12-25T06:45:27.961Z,8.50
2022-12-25T06:48:15.713Z,8.50
2022-12-25T06:51:03.639Z,8.60
2022-12-25T06:53:53.019Z,8.30
2022-12-25T06:56:40.412Z,8.50
2022-12-25T06:59:27.866Z,8.00
2022-12-25T07:02:18.337Z,7.80
2022-12-25T07:05:06.419Z,8.10
2022-12-25T07:07:53.932Z,7.80
2022-12-25T07:10:42.664Z,8.70
2022-12-25T07:13:30.712Z,8.00
2022-12-25T07:16:19.053Z,8.00
2022-12-25T07:19:06.532Z,7.80
2022-12-25T07:21:53.909Z,7.90
2022-12-25T07:24:41.779Z,8.00
2022-12-25T07:27:30.822Z,8.30
2022-12-25T07:30:18.597Z,7.90
2022-12-25T07:33:06.414Z,7.80
2022-12-25T07:35:53.843Z,7.90
2022-12-25T07:38:41.735Z,7.60
2022-12-25T07:41:29.224Z,8.00
2022-12-25T07:44:35.289Z,7.80
2022-12-25T07:47:22.341Z,8.10
2022-12-25T07:50:10.417Z,8.00
2022-12-25T07:52:58.267Z,8.00
2022-12-25T07:55:45.709Z,8.10
2022-12-25T07:58:34.062Z,8.10
2022-12-25T08:01:24.723Z,8.20
2022-12-25T08:04:13.025Z,8.30
2022-12-25T08:07:01.092Z,8.40
2022-12-25T08:09:49.350Z,8.00
2022-12-25T08:12:37.402Z,7.90
2022-12-25T08:15:25.489Z,8.30
2022-12-25T08:18:15.164Z,7.90
2022-12-25T08:21:03.669Z,8.30
2022-12-25T08:23:51.367Z,8.40
2022-12-25T08:26:39.495Z,8.40
2022-12-25T08:29:29.076Z,8.50
2022-12-25T08:32:16.882Z,8.50
2022-12-25T08:35:05.938Z,8.50
2022-12-25T08:37:54.257Z,8.60
2022-12-25T08:40:41.776Z,8.40
2022-12-25T08:43:29.574Z,8.60
2022-12-25T08:46:17.899Z,8.80
2022-12-25T08:49:06.049Z,8.60
2022-12-25T08:51:55.612Z,8.70
2022-12-25T08:54:43.023Z,8.70
2022-12-25T08:57:30.738Z,8.70
2022-12-25T09:00:18.521Z,8.70
2022-12-25T09:03:06.364Z,8.80
2022-12-25T09:05:53.876Z,8.90
2022-12-25T09:08:48.520Z,8.70
2022-12-25T09:11:37.050Z,8.90
2022-12-25T09:14:24.649Z,8.80
2022-12-25T09:17:12.225Z,8.70
2022-12-25T09:20:00.347Z,8.90
2022-12-25T09:22:47.717Z,8.80
2022-12-25T09:25:37.218Z,9.00
2022-12-25T09:28:24.630Z,8.70
2022-12-25T09:31:12.253Z,8.90
2022-12-25T09:33:59.608Z,9.00
2022-12-25T09:36:47.234Z,8.60
2022-12-25T09:39:38.270Z,9.30
2022-12-25T09:42:32.520Z,8.80
2022-12-25T09:45:24.894Z,8.70
2022-12-25T09:48:13.525Z,8.70
2022-12-25T09:51:02.911Z,8.70
2022-12-25T09:53:53.412Z,8.90
2022-12-25T09:56:41.395Z,9.10
2022-12-25T09:59:30.884Z,8.80
2022-12-25T10:02:29.110Z,8.80
2022-12-25T10:05:28.922Z,9.10
2022-12-25T10:08:22.176Z,8.80
2022-12-25T10:11:18.172Z,9.70
2022-12-25T10:14:10.990Z,9.70
2022-12-25T10:17:05.245Z,9.90
2022-12-25T10:19:55.747Z,9.80
2022-12-25T10:22:45.516Z,9.70
2022-12-25T10:25:33.166Z,9.00
2022-12-25T10:28:24.762Z,9.20
2022-12-25T10:31:18.865Z,9.20
2022-12-25T10:34:08.087Z,9.00
2022-12-25T10:36:55.314Z,9.00
2022-12-25T10:39:46.678Z,9.00
2022-12-25T10:42:38.572Z,9.00
2022-12-25T10:45:26.179Z,9.20
2022-12-25T10:48:19.400Z,8.90
2022-12-25T10:51:08.681Z,8.90
2022-12-25T10:53:55.960Z,8.80
2022-12-25T10:56:53.131Z,9.00
2022-12-25T10:59:44.262Z,8.80
2022-12-25T11:02:36.014Z,9.00
2022-12-25T11:05:28.187Z,8.50
2022-12-25T11:08:21.016Z,9.00
2022-12-25T11:11:08.596Z,9.00
2022-12-25T11:13:57.539Z,9.00
2022-12-25T11:16:45.050Z,9.10
2022-12-25T11:19:33.781Z,9.00
2022-12-25T11:22:21.440Z,9.10
2022-12-25T11:25:15.317Z,9.10
2022-12-25T11:28:03.841Z,9.10
2022-12-25T11:30:53.785Z,8.90
2022-12-25T11:33:43.506Z,8.90
2022-12-25T11:36:38.744Z,9.20
2022-12-25T11:39:29.048Z,9.50
2022-12-25T11:42:21.859Z,9.20
2022-12-25T11:45:13.012Z,9.50
2022-12-25T11:48:01.894Z,9.20
2022-12-25T11:50:51.100Z,9.20
2022-12-25T11:53:42.556Z,9.20
2022-12-25T11:56:31.766Z,7.90
2022-12-25T11:59:24.235Z,9.30
2022-12-25T12:02:21.595Z,9.10
2022-12-25T12:05:13.516Z,9.20
2022-12-25T12:08:02.283Z,9.20
2022-12-25T12:11:16.007Z,8.60
2022-12-25T12:14:08.125Z,9.00
2022-12-25T12:16:57.004Z,8.90
2022-12-25T12:19:44.836Z,9.50
2022-12-25T12:22:32.741Z,9.20
2022-12-25T12:25:21.058Z,9.20
2022-12-25T12:28:15.230Z,9.20
2022-12-25T12:31:04.203Z,9.20
2022-12-25T12:33:55.500Z,9.20
2022-12-25T12:36:43.471Z,7.70
2022-12-25T12:39:34.694Z,9.20
2022-12-25T12:42:25.995Z,9.20
2022-12-25T12:45:18.067Z,9.30
2022-12-25T12:48:15.374Z,9.30
2022-12-25T12:51:05.432Z,9.30
2022-12-25T12:54:05.592Z,9.40
2022-12-25T12:56:58.016Z,9.30
2022-12-25T12:59:47.024Z,9.30
2022-12-25T13:02:58.278Z,9.30
2022-12-25T13:05:48.669Z,9.30
2022-12-25T13:08:45.984Z,7.30
2022-12-25T13:11:38.869Z,9.40
2022-12-25T13:14:26.263Z,9.40
2022-12-25T13:17:16.249Z,9.40
2022-12-25T13:20:05.546Z,9.40
2022-12-25T13:22:53.431Z,9.40
2022-12-25T13:25:42.926Z,9.40
2022-12-25T13:28:31.093Z,9.50
2022-12-25T13:31:20.293Z,9.50
2022-12-25T13:34:14.145Z,9.50
2022-12-25T13:37:07.271Z,9.50
2022-12-25T13:39:56.346Z,9.50
2022-12-25T13:42:47.643Z,11.10
2022-12-25T13:45:36.354Z,9.50
2022-12-25T13:48:25.842Z,9.50
2022-12-25T13:51:16.142Z,9.50
2022-12-25T13:54:04.724Z,9.60
2022-12-25T13:56:53.051Z,9.60
2022-12-25T13:59:45.110Z,9.60
2022-12-25T14:02:33.985Z,9.80
2022-12-25T14:05:26.061Z,9.70
2022-12-25T14:08:14.842Z,9.70
2022-12-25T14:11:03.850Z,9.70
2022-12-25T14:13:53.527Z,9.70
2022-12-25T14:16:45.151Z,9.70
2022-12-25T14:19:33.493Z,9.50
2022-12-25T14:22:22.823Z,9.60
2022-12-25T14:25:15.580Z,9.60
2022-12-25T14:28:06.782Z,9.60
2022-12-25T14:30:57.267Z,9.60
2022-12-25T14:33:47.601Z,9.60
2022-12-25T14:36:35.683Z,9.50
2022-12-25T14:39:28.588Z,9.50
2022-12-25T14:42:21.248Z,9.10
2022-12-25T14:45:26.117Z,9.50
2022-12-25T14:48:22.882Z,9.60
2022-12-25T14:51:18.465Z,9.50
2022-12-25T14:54:07.225Z,9.60
2022-12-25T14:56:56.626Z,9.50
2022-12-25T14:59:44.633Z,9.30
2022-12-25T15:02:37.038Z,9.50
2022-12-25T15:05:29.329Z,9.50
2022-12-25T15:08:23.089Z,9.70
2022-12-25T15:11:10.710Z,9.60
2022-12-25T15:13:57.992Z,9.60
2022-12-25T15:16:47.050Z,9.80
2022-12-25T15:19:38.667Z,9.70
2022-12-25T15:22:37.502Z,9.80
2022-12-25T15:25:37.313Z,10.20
2022-12-25T15:28:25.124Z,9.90
2022-12-25T15:31:19.581Z,9.90
2022-12-25T15:34:08.450Z,9.90
2022-12-25T15:36:56.692Z,9.90
2022-12-25T15:39:44.844Z,10.00
2022-12-25T15:42:33.587Z,9.90
2022-12-25T15:45:22.230Z,10.00
2022-12-25T15:48:10.293Z,10.10
2022-12-25T15:51:00.416Z,10.00
2022-12-25T15:53:47.769Z,9.90
2022-12-25T15:56:40.562Z,10.00
2022-12-25T15:59:30.171Z,10.00
2022-12-25T16:02:18.881Z,10.00
2022-12-25T16:05:10.473Z,10.00
2022-12-25T16:07:58.940Z,9.90
2022-12-25T16:10:46.597Z,9.90
2022-12-25T16:13:34.818Z,9.90
2022-12-25T16:16:24.093Z,9.90
2022-12-25T16:19:12.505Z,9.90
2022-12-25T16:22:00.819Z,10.60
2022-12-25T16:24:48.835Z,9.90
2022-12-25T16:27:36.901Z,9.70
2022-12-25T16:30:25.249Z,9.90
2022-12-25T16:33:16.130Z,9.80
2022-12-25T16:36:03.927Z,9.80
2022-12-25T16:38:51.326Z,9.80
2022-12-25T16:41:38.994Z,9.90
2022-12-25T16:44:26.725Z,9.80
2022-12-25T16:47:14.748Z,9.80
2022-12-25T16:50:05.265Z,9.90
2022-12-25T16:52:53.517Z,9.90
2022-12-25T16:55:41.301Z,9.90
2022-12-25T16:58:28.896Z,9.90
2022-12-25T17:01:17.976Z,10.00
2022-12-25T17:04:05.542Z,9.80
2022-12-25T17:06:54.398Z,10.00
2022-12-25T17:09:44.605Z,10.10
2022-12-25T17:12:33.235Z,10.20
2022-12-25T17:15:21.192Z,10.20
2022-12-25T17:18:08.824Z,10.20
2022-12-25T17:20:57.039Z,10.10
2022-12-25T17:23:46.214Z,10.20
2022-12-25T17:26:34.195Z,10.20
2022-12-25T17:29:22.597Z,10.70
2022-12-25T17:32:11.919Z,10.30
2022-12-25T17:34:59.382Z,10.30
2022-12-25T17:37:46.949Z,10.30
2022-12-25T17:40:35.925Z,10.30
2022-12-25T17:43:23.607Z,10.40
2022-12-25T17:46:13.329Z,10.40
2022-12-25T17:49:01.528Z,10.40
2022-12-25T17:51:49.803Z,10.40
2022-12-25T17:54:39.287Z,10.40
2022-12-25T17:57:28.679Z,10.20
2022-12-25T18:00:16.923Z,10.50
2022-12-25T18:03:11.168Z,10.50
2022-12-25T18:06:00.626Z,10.50
2022-12-25T18:08:48.760Z,10.50
2022-12-25T18:11:39.039Z,10.50
2022-12-25T18:14:28.197Z,10.30
2022-12-25T18:17:15.799Z,10.50
2022-12-25T18:20:03.861Z,10.30
2022-12-25T18:22:53.066Z,10.50
2022-12-25T18:25:41.748Z,10.50
2022-12-25T18:28:29.021Z,10.50
2022-12-25T18:31:20.520Z,10.50
2022-12-25T18:34:08.046Z,10.50
2022-12-25T18:37:02.912Z,10.60
2022-12-25T18:39:50.640Z,10.50
2022-12-25T18:42:41.040Z,10.50
2022-12-25T18:45:28.773Z,10.50
2022-12-25T18:48:18.329Z,10.50
2022-12-25T18:51:06.635Z,10.40
2022-12-25T18:53:55.004Z,10.30
2022-12-25T18:56:42.472Z,10.20
2022-12-25T18:59:30.859Z,10.00
2022-12-25T19:02:18.880Z,10.30
2022-12-25T19:05:08.546Z,10.40
2022-12-25T19:07:55.919Z,10.10
2022-12-25T19:10:43.640Z,10.40
2022-12-25T19:13:31.128Z,10.40
2022-12-25T19:16:19.291Z,10.40
2022-12-25T19:19:07.138Z,10.40
2022-12-25T19:21:57.668Z,10.20
2022-12-25T19:24:45.851Z,10.40
2022-12-25T19:27:33.983Z,10.40
2022-12-25T19:30:21.802Z,10.40
2022-12-25T19:33:17.239Z,10.40
2022-12-25T19:36:06.747Z,10.40
2022-12-25T19:38:56.231Z,10.40
2022-12-25T19:41:44.538Z,10.40
2022-12-25T19:44:31.749Z,10.30
2022-12-25T19:47:19.795Z,10.30
2022-12-25T19:50:09.007Z,10.40
2022-12-25T19:52:57.941Z,10.40
2022-12-25T19:55:47.293Z,10.40
2022-12-25T19:58:35.387Z,10.40
2022-12-25T20:01:24.504Z,10.60
2022-12-25T20:04:12.654Z,10.50
2022-12-25T20:07:00.809Z,10.30
2022-12-25T20:09:48.570Z,10.50
2022-12-25T20:12:37.987Z,10.50
2022-12-25T20:15:26.252Z,10.50
2022-12-25T20:18:14.226Z,10.50
2022-12-25T20:21:02.863Z,10.50
2022-12-25T20:23:52.095Z,10.50
2022-12-25T20:26:40.703Z,10.40
2022-12-25T20:29:29.624Z,10.50
2022-12-25T20:32:17.076Z,10.40
2022-12-25T20:35:05.160Z,10.40
2022-12-25T20:37:53.444Z,10.40
2022-12-25T20:41:16.331Z,10.40
2022-12-25T20:43:49.755Z,10.40
2022-12-25T20:46:39.271Z,10.50
2022-12-25T20:49:27.899Z,10.40
2022-12-25T20:52:15.862Z,10.40
2022-12-25T20:55:03.616Z,10.40
2022-12-25T20:57:51.443Z,10.30
2022-12-25T21:00:40.252Z,10.30
2022-12-25T21:03:29.445Z,10.30
2022-12-25T21:06:17.682Z,10.30
2022-12-25T21:09:05.703Z,8.00
2022-12-25T21:11:53.833Z,10.30
2022-12-25T21:14:41.216Z,10.20
2022-12-25T21:17:29.118Z,10.10
2022-12-25T21:20:18.102Z,10.20
2022-12-25T21:23:05.815Z,10.10
2022-12-25T21:25:54.663Z,10.10
2022-12-25T21:28:42.684Z,10.10
2022-12-25T21:31:30.791Z,10.10
2022-12-25T21:34:17.173Z,10.10
2022-12-25T21:37:06.470Z,10.10
2022-12-25T21:39:54.335Z,10.10
2022-12-25T21:42:41.910Z,10.20
2022-12-25T21:45:29.716Z,10.10
2022-12-25T21:48:17.757Z,10.20
2022-12-25T21:51:22.909Z,10.20
2022-12-25T21:54:12.581Z,10.30
2022-12-25T21:57:00.520Z,10.40
2022-12-25T21:59:49.112Z,10.40
2022-12-25T22:02:37.296Z,10.50
2022-12-25T22:05:38.480Z,10.50
2022-12-25T22:08:29.992Z,10.50
2022-12-25T22:11:36.899Z,10.60
2022-12-25T22:14:51.033Z,10.60
2022-12-25T22:17:59.924Z,10.60
2022-12-25T22:20:47.805Z,10.60
2022-12-25T22:23:35.255Z,10.60
2022-12-25T22:26:24.271Z,10.60
2022-12-25T22:29:12.615Z,10.60
2022-12-25T22:31:59.902Z,10.60
2022-12-25T22:34:47.520Z,10.60
2022-12-25T22:37:35.963Z,10.70
2022-12-25T22:40:24.291Z,10.70
2022-12-25T22:43:13.283Z,10.70
2022-12-25T22:46:01.427Z,10.70
2022-12-25T22:48:49.366Z,10.60
2022-12-25T22:51:37.401Z,10.60
2022-12-25T22:54:25.590Z,10.60
2022-12-25T22:57:12.737Z,10.70
2022-12-25T23:00:02.440Z,10.70
2022-12-25T23:02:50.379Z,10.70
2022-12-25T23:05:38.349Z,10.70
2022-12-25T23:08:26.329Z,10.70
2022-12-25T23:11:14.189Z,10.70
2022-12-25T23:14:18.847Z,10.70
2022-12-25T23:17:28.327Z,10.70
2022-12-25T23:20:33.700Z,10.70
2022-12-25T23:23:39.144Z,10.70
2022-12-25T23:26:27.429Z,10.70
2022-12-25T23:29:33.900Z,10.60
2022-12-25T23:32:25.254Z,10.70
2022-12-25T23:35:14.437Z,10.50
2022-12-25T23:38:02.785Z,10.40
2022-12-25T23:40:50.022Z,10.50
2022-12-25T23:43:37.587Z,10.40
2022-12-25T23:46:25.484Z,10.40
2022-12-25T23:49:14.391Z,10.40
2022-12-25T23:52:01.605Z,10.40
2022-12-25T23:54:49.172Z,10.40
2022-12-25T23:57:37.078Z,9.60
